createdAt,value
2022-10-05T00:01:57.056Z,7.65
2022-10-05T00:04:07.629Z,7.78
2022-10-05T00:06:10.660Z,8.10
2022-10-05T00:08:16.261Z,7.57
2022-10-05T00:10:20.926Z,8.50
2022-10-05T00:12:24.342Z,8.10
2022-10-05T00:14:31.097Z,8.32
2022-10-05T00:16:36.075Z,7.85
2022-10-05T00:18:39.576Z,8.95
2022-10-05T00:20:43.116Z,8.77
2022-10-05T00:22:45.971Z,9.70
2022-10-05T00:24:53.056Z,8.90
2022-10-05T00:26:58.204Z,9.30
2022-10-05T00:29:03.509Z,8.52
2022-10-05T00:31:15.883Z,9.27
2022-10-05T00:33:20.026Z,9.38
2022-10-05T00:35:22.884Z,9.55
2022-10-05T00:37:25.795Z,8.52
2022-10-05T00:39:29.928Z,8.27
2022-10-05T00:41:45.653Z,8.40
2022-10-05T00:44:30.438Z,8.18
2022-10-05T00:46:44.556Z,8.43
2022-10-05T00:48:59.800Z,7.50
2022-10-05T00:51:14.270Z,7.85
2022-10-05T00:53:28.403Z,7.22
2022-10-05T00:55:42.824Z,6.30
2022-10-05T00:57:59.595Z,6.82
2022-10-05T01:00:07.891Z,7.05
2022-10-05T01:02:14.383Z,7.10
2022-10-05T01:04:23.212Z,6.47
2022-10-05T01:06:36.882Z,7.28
2022-10-05T01:08:48.902Z,5.95
2022-10-05T01:10:58.739Z,5.93
2022-10-05T01:13:10.265Z,5.90
2022-10-05T01:15:21.794Z,5.57
2022-10-05T01:17:29.158Z,5.93
2022-10-05T01:20:05.727Z,5.55
2022-10-05T01:22:21.602Z,4.88
2022-10-05T01:24:43.794Z,4.93
2022-10-05T01:27:16.709Z,4.82
2022-10-05T01:29:25.044Z,5.10
2022-10-05T01:31:36.074Z,5.00
2022-10-05T01:33:45.201Z,4.97
2022-10-05T01:35:59.640Z,5.38
2022-10-05T01:38:18.793Z,5.68
2022-10-05T01:40:31.913Z,5.00
2022-10-05T01:42:46.498Z,5.30
2022-10-05T01:44:57.037Z,4.45
2022-10-05T01:47:03.779Z,5.43
2022-10-05T01:49:34.194Z,4.70
2022-10-05T01:51:44.626Z,5.13
2022-10-05T01:53:57.079Z,5.53
2022-10-05T01:56:07.559Z,6.70
2022-10-05T01:58:20.066Z,10.20
2022-10-05T02:00:24.512Z,7.82
2022-10-05T02:02:30.174Z,5.47
2022-10-05T02:06:59.762Z,5.97
2022-10-05T02:09:06.960Z,6.10
2022-10-05T02:11:13.201Z,6.32
2022-10-05T02:13:22.248Z,5.68
2022-10-05T02:15:30.768Z,5.50
2022-10-05T02:17:39.432Z,6.43
2022-10-05T02:19:45.658Z,6.53
2022-10-05T02:21:55.886Z,8.75
2022-10-05T02:24:04.964Z,7.45
2022-10-05T02:26:12.049Z,6.50
2022-10-05T02:28:20.317Z,6.78
2022-10-05T02:30:23.493Z,6.78
2022-10-05T02:32:36.307Z,6.95
2022-10-05T02:34:41.690Z,7.05
2022-10-05T02:37:17.198Z,7.43
2022-10-05T02:39:31.586Z,7.63
2022-10-05T02:41:47.899Z,8.10
2022-10-05T02:43:57.444Z,7.60
2022-10-05T02:46:17.108Z,7.60
2022-10-05T02:48:32.248Z,7.68
2022-10-05T02:50:45.855Z,8.75
2022-10-05T02:52:56.705Z,7.88
2022-10-05T02:55:06.928Z,8.82
2022-10-05T02:57:17.410Z,10.13
2022-10-05T02:59:28.102Z,10.25
2022-10-05T03:01:36.779Z,9.70
2022-10-05T03:03:47.579Z,12.95
2022-10-05T03:05:56.309Z,11.43
2022-10-05T03:08:03.872Z,11.35
2022-10-05T03:10:10.636Z,10.48
2022-10-05T03:12:32.292Z,11.32
2022-10-05T03:14:46.516Z,11.80
2022-10-05T03:17:07.471Z,12.70
2022-10-05T03:19:24.098Z,12.18
2022-10-05T03:21:48.686Z,11.27
2022-10-05T03:24:05.877Z,10.95
2022-10-05T03:26:25.689Z,12.13
2022-10-05T03:28:34.598Z,10.07
2022-10-05T03:30:47.675Z,11.20
2022-10-05T03:32:59.526Z,11.88
2022-10-05T03:35:10.588Z,11.73
2022-10-05T03:37:35.271Z,11.68
2022-10-05T03:39:41.946Z,11.23
2022-10-05T03:41:52.758Z,10.95
2022-10-05T03:44:31.579Z,12.50
2022-10-05T03:46:50.745Z,9.95
2022-10-05T03:49:05.519Z,10.57
2022-10-05T03:51:16.430Z,12.18
2022-10-05T03:53:22.069Z,10.07
2022-10-05T03:55:32.199Z,10.18
2022-10-05T03:57:39.641Z,9.40
2022-10-05T03:59:52.657Z,9.32
2022-10-05T04:02:00.005Z,10.02
2022-10-05T04:04:06.484Z,9.60
2022-10-05T04:06:15.223Z,9.52
2022-10-05T04:08:24.187Z,12.05
2022-10-05T04:10:31.004Z,14.40
2022-10-05T04:12:39.655Z,16.83
2022-10-05T04:14:47.223Z,17.40
2022-10-05T04:16:55.675Z,19.30
2022-10-05T04:19:04.636Z,15.63
2022-10-05T04:21:12.959Z,20.30
2022-10-05T04:23:25.503Z,21.27
2022-10-05T04:25:35.804Z,12.98
2022-10-05T04:27:43.135Z,12.43
2022-10-05T04:29:54.770Z,12.25
2022-10-05T04:32:12.995Z,12.50
2022-10-05T04:34:30.015Z,13.00
2022-10-05T04:36:44.675Z,11.43
2022-10-05T04:39:01.185Z,13.40
2022-10-05T04:41:25.556Z,12.95
2022-10-05T04:43:39.454Z,12.77
2022-10-05T04:46:11.125Z,11.98
2022-10-05T04:48:31.933Z,11.73
2022-10-05T04:50:49.110Z,11.57
2022-10-05T04:53:01.814Z,11.63
2022-10-05T04:55:15.013Z,11.80
2022-10-05T04:57:25.342Z,11.63
2022-10-05T05:00:08.646Z,11.68
2022-10-05T05:02:21.984Z,12.27
2022-10-05T05:04:51.483Z,11.30
2022-10-05T05:07:06.963Z,11.63
2022-10-05T05:09:28.885Z,11.18
2022-10-05T05:11:43.043Z,10.88
2022-10-05T05:14:20.785Z,12.05
2022-10-05T05:16:33.831Z,11.93
2022-10-05T05:19:05.281Z,10.82
2022-10-05T05:21:21.248Z,11.00
2022-10-05T05:23:33.493Z,10.82
2022-10-05T05:25:48.189Z,10.35
2022-10-05T05:27:56.448Z,9.85
2022-10-05T05:30:08.404Z,10.63
2022-10-05T05:32:25.677Z,9.60
2022-10-05T05:34:43.787Z,12.10
2022-10-05T05:37:00.360Z,12.00
2022-10-05T05:39:24.576Z,10.70
2022-10-05T05:41:37.215Z,8.00
2022-10-05T05:43:56.042Z,8.52
2022-10-05T05:46:02.231Z,7.97
2022-10-05T05:48:16.442Z,10.18
2022-10-05T05:50:34.682Z,10.23
2022-10-05T05:52:42.784Z,9.93
2022-10-05T05:54:50.959Z,9.07
2022-10-05T05:57:04.282Z,7.65
2022-10-05T05:59:15.244Z,8.60
2022-10-05T06:01:33.311Z,8.73
2022-10-05T06:03:44.183Z,8.88
2022-10-05T06:05:52.232Z,7.80
2022-10-05T06:07:56.899Z,8.75
2022-10-05T06:10:06.361Z,7.90
2022-10-05T06:12:19.846Z,7.90
2022-10-05T06:14:29.867Z,8.68
2022-10-05T06:16:39.883Z,7.80
2022-10-05T06:18:48.898Z,8.60
2022-10-05T06:20:58.428Z,7.90
2022-10-05T06:23:05.268Z,8.10
2022-10-05T06:25:23.090Z,8.93
2022-10-05T06:27:35.279Z,9.10
2022-10-05T06:29:55.531Z,9.02
2022-10-05T06:32:08.059Z,7.60
2022-10-05T06:34:34.511Z,7.80
2022-10-05T06:36:45.437Z,6.97
2022-10-05T06:39:13.556Z,6.57
2022-10-05T06:41:25.100Z,6.25
2022-10-05T06:43:51.207Z,6.57
2022-10-05T06:46:19.718Z,6.03
2022-10-05T06:49:03.938Z,6.03
2022-10-05T06:51:33.236Z,6.25
2022-10-05T06:53:58.476Z,5.70
2022-10-05T06:56:10.279Z,5.72
2022-10-05T06:58:27.854Z,5.82
2022-10-05T07:00:41.372Z,5.38
2022-10-05T07:02:53.263Z,5.57
2022-10-05T07:05:17.134Z,5.57
2022-10-05T07:07:26.995Z,5.15
2022-10-05T07:09:41.543Z,4.97
2022-10-05T07:12:23.567Z,5.18
2022-10-05T07:14:44.434Z,4.80
2022-10-05T07:17:05.334Z,4.50
2022-10-05T07:19:20.006Z,4.47
2022-10-05T07:21:35.871Z,4.40
2022-10-05T07:23:51.997Z,3.93
2022-10-05T07:26:06.339Z,4.00
2022-10-05T07:28:20.249Z,4.00
2022-10-05T07:30:25.057Z,4.00
2022-10-05T07:32:36.481Z,4.40
2022-10-05T07:34:49.207Z,4.38
2022-10-05T07:37:14.362Z,4.03
2022-10-05T07:39:42.030Z,4.18
2022-10-05T07:41:54.680Z,4.10
2022-10-05T07:44:12.617Z,4.20
2022-10-05T07:46:24.928Z,4.33
2022-10-05T07:48:33.592Z,4.17
2022-10-05T07:50:45.436Z,4.67
2022-10-05T07:52:55.133Z,3.90
2022-10-05T07:55:04.746Z,3.60
2022-10-05T07:57:21.295Z,3.70
2022-10-05T07:59:33.695Z,3.77
2022-10-05T08:01:43.185Z,3.87
2022-10-05T08:03:53.730Z,5.50
2022-10-05T08:05:58.998Z,3.63
2022-10-05T08:08:07.433Z,4.20
2022-10-05T08:10:28.081Z,19.33
2022-10-05T08:12:33.293Z,8.30
2022-10-05T08:14:46.162Z,7.00
2022-10-05T08:16:53.310Z,4.37
2022-10-05T08:19:03.417Z,6.30
2022-10-05T08:21:11.961Z,3.73
2022-10-05T08:23:23.583Z,3.53
2022-10-05T08:25:31.187Z,3.43
2022-10-05T08:27:41.236Z,3.70
2022-10-05T08:29:55.297Z,3.60
2022-10-05T08:32:02.327Z,3.60
2022-10-05T08:34:20.260Z,4.83
2022-10-05T08:36:34.271Z,3.67
2022-10-05T08:38:37.890Z,3.23
2022-10-05T08:41:09.406Z,3.00
2022-10-05T08:43:44.336Z,2.87
2022-10-05T08:46:18.266Z,3.20
2022-10-05T08:48:44.145Z,3.70
2022-10-05T08:51:20.436Z,2.70
2022-10-05T08:53:39.528Z,2.57
2022-10-05T08:55:53.285Z,2.57
2022-10-05T08:58:45.011Z,4.67
2022-10-05T09:00:56.660Z,4.13
2022-10-05T09:03:20.654Z,4.10
2022-10-05T09:06:20.665Z,6.60
2022-10-05T09:08:42.452Z,4.93
2022-10-05T09:11:01.101Z,3.17
2022-10-05T09:13:20.366Z,4.57
2022-10-05T09:15:38.201Z,3.37
2022-10-05T09:18:08.229Z,2.77
2022-10-05T09:20:32.203Z,2.80
2022-10-05T09:23:00.053Z,2.60
2022-10-05T09:25:17.153Z,2.73
2022-10-05T09:27:28.294Z,3.57
2022-10-05T09:30:13.128Z,2.90
2022-10-05T09:32:36.654Z,3.40
2022-10-05T09:35:02.796Z,3.13
2022-10-05T09:37:29.823Z,2.53
2022-10-05T09:40:04.034Z,2.80
2022-10-05T09:42:47.999Z,1.90
2022-10-05T09:45:25.802Z,2.33
2022-10-05T09:48:11.047Z,2.63
2022-10-05T09:51:02.366Z,2.10
2022-10-05T09:53:19.229Z,1.90
2022-10-05T09:55:50.147Z,2.40
2022-10-05T09:58:33.355Z,1.90
2022-10-05T10:01:08.822Z,2.40
2022-10-05T10:03:24.941Z,2.00
2022-10-05T10:05:45.209Z,2.10
2022-10-05T10:08:12.657Z,1.60
2022-10-05T10:10:38.890Z,2.20
2022-10-05T10:12:58.859Z,2.13
2022-10-05T10:15:38.049Z,1.80
2022-10-05T10:18:17.338Z,1.87
2022-10-05T10:20:32.042Z,1.73
2022-10-05T10:23:10.943Z,1.73
2022-10-05T10:25:38.605Z,1.70
2022-10-05T10:27:57.210Z,2.00
2022-10-05T10:30:33.145Z,1.70
2022-10-05T10:33:11.239Z,1.80
2022-10-05T10:35:23.498Z,1.90
2022-10-05T10:37:39.075Z,1.90
2022-10-05T10:40:00.743Z,1.97
2022-10-05T10:42:26.176Z,1.90
2022-10-05T10:45:00.883Z,1.70
2022-10-05T10:47:25.570Z,1.90
2022-10-05T10:49:48.615Z,1.93
2022-10-05T10:52:08.952Z,1.77
2022-10-05T10:55:08.275Z,1.80
2022-10-05T10:57:15.368Z,2.00
2022-10-05T11:00:02.614Z,1.80
2022-10-05T11:02:25.021Z,1.80
2022-10-05T11:05:01.603Z,2.00
2022-10-05T11:07:31.008Z,1.67
2022-10-05T11:09:56.738Z,1.80
2022-10-05T11:12:37.083Z,1.63
2022-10-05T11:15:15.192Z,1.80
2022-10-05T11:17:37.690Z,1.90
2022-10-05T11:20:03.535Z,1.60
2022-10-05T11:22:24.111Z,1.83
2022-10-05T11:25:00.740Z,1.90
2022-10-05T11:27:30.067Z,1.60
2022-10-05T11:30:02.935Z,1.67
2022-10-05T11:32:30.305Z,1.70
2022-10-05T11:35:03.562Z,1.60
2022-10-05T11:37:53.555Z,1.60
2022-10-05T11:40:35.096Z,1.30
2022-10-05T11:43:14.159Z,1.13
2022-10-05T11:45:48.781Z,2.00
2022-10-05T11:48:16.923Z,2.20
2022-10-05T11:50:24.031Z,1.00
2022-10-05T11:52:36.844Z,0.97
2022-10-05T11:55:11.063Z,2.43
2022-10-05T11:57:19.159Z,0.90
2022-10-05T11:59:29.520Z,1.90
2022-10-05T12:01:41.471Z,1.20
2022-10-05T12:03:54.312Z,1.80
2022-10-05T12:06:34.190Z,1.27
2022-10-05T12:08:49.904Z,2.57
2022-10-05T12:11:07.773Z,0.93
2022-10-05T12:13:24.304Z,0.77
2022-10-05T12:15:32.870Z,0.70
2022-10-05T12:17:38.975Z,0.80
2022-10-05T12:19:46.838Z,0.80
2022-10-05T12:21:55.735Z,0.70
2022-10-05T12:24:05.858Z,0.90
2022-10-05T12:26:14.849Z,0.80
2022-10-05T12:28:23.372Z,0.60
2022-10-05T12:30:33.123Z,0.67
2022-10-05T12:32:42.323Z,0.67
2022-10-05T12:35:01.100Z,0.70
2022-10-05T12:37:13.977Z,1.27
2022-10-05T12:39:27.245Z,0.90
2022-10-05T12:41:36.496Z,0.60
2022-10-05T12:43:53.914Z,0.90
2022-10-05T12:46:07.717Z,0.90
2022-10-05T12:48:32.693Z,1.23
2022-10-05T12:50:41.104Z,0.77
2022-10-05T12:52:57.007Z,0.80
2022-10-05T12:55:09.579Z,1.00
2022-10-05T12:57:22.106Z,1.00
2022-10-05T12:59:36.763Z,0.93
2022-10-05T13:01:43.766Z,0.93
2022-10-05T13:03:52.667Z,0.80
2022-10-05T13:06:08.261Z,1.10
2022-10-05T13:08:19.036Z,1.10
2022-10-05T13:10:30.667Z,1.53
2022-10-05T13:12:49.648Z,1.00
2022-10-05T13:15:03.470Z,1.07
2022-10-05T13:17:11.557Z,1.10
2022-10-05T13:19:31.371Z,0.90
2022-10-05T13:21:50.112Z,1.37
2022-10-05T13:24:00.302Z,1.10
2022-10-05T13:26:08.873Z,1.10
2022-10-05T13:28:19.552Z,1.30
2022-10-05T13:30:23.218Z,0.93
2022-10-05T13:32:31.445Z,1.10
2022-10-05T13:34:40.296Z,1.00
2022-10-05T13:36:54.905Z,0.90
2022-10-05T13:39:03.739Z,0.90
2022-10-05T13:41:20.505Z,1.17
2022-10-05T13:43:29.087Z,0.90
2022-10-05T13:45:41.327Z,0.93
2022-10-05T13:47:56.582Z,1.03
2022-10-05T13:50:04.446Z,1.30
2022-10-05T13:52:19.704Z,0.97
2022-10-05T13:54:31.250Z,1.00
2022-10-05T13:56:40.834Z,1.20
2022-10-05T13:58:49.951Z,0.73
2022-10-05T14:00:55.901Z,0.93
2022-10-05T14:03:00.936Z,0.97
2022-10-05T14:05:16.606Z,0.90
2022-10-05T14:07:34.211Z,1.00
2022-10-05T14:09:36.914Z,1.23
2022-10-05T14:11:49.624Z,1.43
2022-10-05T14:13:53.123Z,1.80
2022-10-05T14:16:14.815Z,1.80
2022-10-05T14:18:25.735Z,1.30
2022-10-05T14:20:31.075Z,1.10
2022-10-05T14:22:42.379Z,1.20
2022-10-05T14:24:50.891Z,1.30
2022-10-05T14:26:56.086Z,0.80
2022-10-05T14:29:01.343Z,1.80
2022-10-05T14:31:13.937Z,1.00
2022-10-05T14:33:17.711Z,1.10
2022-10-05T14:35:22.105Z,0.83
2022-10-05T14:37:27.526Z,1.00
2022-10-05T14:39:35.358Z,0.97
2022-10-05T14:41:46.359Z,1.70
2022-10-05T14:43:58.264Z,1.50
2022-10-05T14:46:03.445Z,1.10
2022-10-05T14:48:12.242Z,1.07
2022-10-05T14:50:19.140Z,1.13
2022-10-05T14:52:32.434Z,0.90
2022-10-05T14:54:47.810Z,1.17
2022-10-05T14:56:57.898Z,1.37
2022-10-05T14:59:31.606Z,1.20
2022-10-05T15:01:36.599Z,0.90
2022-10-05T15:03:47.600Z,3.60
2022-10-05T15:05:54.336Z,1.30
2022-10-05T15:08:02.624Z,1.97
2022-10-05T15:10:27.013Z,3.27
2022-10-05T15:12:33.610Z,3.53
2022-10-05T15:14:42.141Z,2.70
2022-10-05T15:16:46.421Z,3.33
2022-10-05T15:18:56.724Z,2.77
2022-10-05T15:21:13.669Z,3.37
2022-10-05T15:23:24.770Z,2.90
2022-10-05T15:25:37.115Z,2.53
2022-10-05T15:28:04.731Z,2.50
2022-10-05T15:30:13.578Z,1.90
2022-10-05T15:32:25.303Z,3.10
2022-10-05T15:34:34.825Z,2.07
2022-10-05T15:36:42.994Z,2.27
2022-10-05T15:39:00.575Z,1.60
2022-10-05T15:41:11.231Z,1.83
2022-10-05T15:43:18.709Z,1.43
2022-10-05T15:45:32.278Z,1.03
2022-10-05T15:47:47.432Z,1.57
2022-10-05T15:50:01.227Z,1.80
2022-10-05T15:52:17.596Z,1.40
2022-10-05T15:54:43.220Z,1.47
2022-10-05T15:56:53.761Z,1.60
2022-10-05T15:58:58.003Z,1.60
2022-10-05T16:01:08.515Z,1.67
2022-10-05T16:03:19.764Z,1.03
2022-10-05T16:05:56.879Z,1.60
2022-10-05T16:08:17.330Z,1.40
2022-10-05T16:10:23.354Z,1.60
2022-10-05T16:12:36.542Z,2.60
2022-10-05T16:14:54.999Z,1.60
2022-10-05T16:17:13.628Z,2.37
2022-10-05T16:19:26.979Z,1.70
2022-10-05T16:21:38.891Z,1.27
2022-10-05T16:23:52.270Z,1.40
2022-10-05T16:26:09.223Z,2.60
2022-10-05T16:28:23.187Z,1.80
2022-10-05T16:30:27.100Z,1.70
2022-10-05T16:32:36.757Z,1.90
2022-10-05T16:34:54.445Z,2.07
2022-10-05T16:37:04.564Z,1.60
2022-10-05T16:39:16.691Z,2.10
2022-10-05T16:41:29.213Z,2.23
2022-10-05T16:43:45.805Z,3.50
2022-10-05T16:45:59.931Z,2.57
2022-10-05T16:48:12.646Z,2.53
2022-10-05T16:50:24.206Z,4.43
2022-10-05T16:52:28.841Z,3.40
2022-10-05T16:54:34.093Z,3.67
2022-10-05T16:56:42.348Z,3.03
2022-10-05T16:58:56.705Z,2.07
2022-10-05T17:01:11.848Z,5.60
2022-10-05T17:03:25.161Z,8.03
2022-10-05T17:05:45.791Z,5.83
2022-10-05T17:08:09.860Z,4.60
2022-10-05T17:10:46.734Z,1.93
2022-10-05T17:13:01.903Z,4.00
2022-10-05T17:15:19.103Z,2.60
2022-10-05T17:17:58.405Z,2.83
2022-10-05T17:20:29.313Z,3.70
2022-10-05T17:22:34.400Z,2.60
2022-10-05T17:24:52.981Z,2.50
2022-10-05T17:27:02.361Z,2.70
2022-10-05T17:29:14.905Z,3.23
2022-10-05T17:31:20.131Z,4.50
2022-10-05T17:33:26.299Z,5.17
2022-10-05T17:35:58.312Z,4.93
2022-10-05T17:38:14.068Z,4.67
2022-10-05T17:40:36.072Z,2.43
2022-10-05T17:42:49.535Z,5.67
2022-10-05T17:44:55.434Z,7.57
2022-10-05T17:47:00.522Z,4.87
2022-10-05T17:49:39.191Z,3.57
2022-10-05T17:52:23.139Z,4.43
2022-10-05T17:54:48.178Z,9.27
2022-10-05T17:57:23.726Z,9.87
2022-10-05T17:59:39.728Z,9.90
2022-10-05T18:01:42.578Z,7.83
2022-10-05T18:03:50.366Z,8.10
2022-10-05T18:06:26.367Z,6.57
2022-10-05T18:08:38.101Z,6.57
2022-10-05T18:11:17.099Z,4.50
2022-10-05T18:13:34.807Z,4.80
2022-10-05T18:15:48.778Z,4.17
2022-10-05T18:17:54.800Z,3.23
2022-10-05T18:20:18.217Z,2.13
2022-10-05T18:22:30.302Z,3.20
2022-10-05T18:24:55.947Z,2.90
2022-10-05T18:27:12.392Z,2.70
2022-10-05T18:29:41.085Z,3.07
2022-10-05T18:31:54.192Z,4.40
2022-10-05T18:34:13.783Z,3.30
2022-10-05T18:36:28.607Z,4.50
2022-10-05T18:38:43.378Z,3.30
2022-10-05T18:40:56.328Z,3.40
2022-10-05T18:43:09.751Z,7.57
2022-10-05T18:45:23.473Z,7.57
2022-10-05T18:47:34.420Z,7.97
2022-10-05T18:50:16.701Z,5.63
2022-10-05T18:52:30.037Z,4.40
2022-10-05T18:54:54.127Z,2.20
2022-10-05T18:56:59.439Z,2.50
2022-10-05T18:59:19.264Z,2.10
2022-10-05T19:01:50.922Z,1.97
2022-10-05T19:04:03.300Z,2.10
2022-10-05T19:06:14.897Z,2.30
2022-10-05T19:08:29.608Z,2.00
2022-10-05T19:10:43.513Z,1.73
2022-10-05T19:13:00.882Z,2.00
2022-10-05T19:15:11.811Z,2.20
2022-10-05T19:17:25.658Z,2.57
2022-10-05T19:19:42.586Z,2.77
2022-10-05T19:21:51.877Z,3.00
2022-10-05T19:24:26.649Z,2.00
2022-10-05T19:26:44.040Z,1.60
2022-10-05T19:29:00.337Z,2.27
2022-10-05T19:31:20.781Z,2.00
2022-10-05T19:33:32.536Z,1.77
2022-10-05T19:35:47.420Z,1.80
2022-10-05T19:38:03.165Z,1.73
2022-10-05T19:40:16.727Z,2.37
2022-10-05T19:42:40.536Z,2.47
2022-10-05T19:44:56.593Z,2.70
2022-10-05T19:47:02.632Z,2.17
2022-10-05T19:49:10.506Z,2.07
2022-10-05T19:51:18.027Z,2.93
2022-10-05T19:53:26.219Z,2.67
2022-10-05T19:55:34.739Z,2.10
2022-10-05T19:57:47.433Z,2.63
2022-10-05T19:59:57.735Z,2.37
2022-10-05T20:02:02.382Z,2.10
2022-10-05T20:04:06.862Z,2.37
2022-10-05T20:06:11.820Z,2.10
2022-10-05T20:08:18.189Z,2.60
2022-10-05T20:10:29.003Z,2.30
2022-10-05T20:12:51.586Z,2.13
2022-10-05T20:15:26.922Z,1.63
2022-10-05T20:17:47.776Z,2.67
2022-10-05T20:20:08.216Z,3.23
2022-10-05T20:22:29.247Z,4.50
2022-10-05T20:24:50.824Z,3.67
2022-10-05T20:27:05.768Z,3.23
2022-10-05T20:29:09.777Z,3.50
2022-10-05T20:31:14.457Z,3.03
2022-10-05T20:33:17.171Z,4.27
2022-10-05T20:35:22.103Z,3.00
2022-10-05T20:37:25.479Z,2.50
2022-10-05T20:39:28.170Z,2.47
2022-10-05T20:41:30.837Z,1.93
2022-10-05T20:43:33.609Z,3.17
2022-10-05T20:45:36.269Z,2.40
2022-10-05T20:47:40.505Z,2.30
2022-10-05T20:49:44.467Z,2.23
2022-10-05T20:51:47.144Z,1.97
2022-10-05T20:53:49.873Z,2.37
2022-10-05T20:55:52.522Z,2.20
2022-10-05T20:57:56.629Z,2.60
2022-10-05T21:00:00.285Z,2.20
2022-10-05T21:02:03.817Z,2.23
2022-10-05T21:04:07.924Z,2.30
2022-10-05T21:06:11.219Z,2.70
2022-10-05T21:08:13.978Z,2.23
2022-10-05T21:10:17.041Z,2.70
2022-10-05T21:12:19.707Z,2.80
2022-10-05T21:14:23.279Z,2.40
2022-10-05T21:16:26.873Z,6.00
2022-10-05T21:18:30.221Z,6.97
2022-10-05T21:20:34.522Z,4.13
2022-10-05T21:22:37.217Z,3.47
2022-10-05T21:24:41.265Z,2.90
2022-10-05T21:26:45.097Z,3.50
2022-10-05T21:28:47.884Z,3.70
2022-10-05T21:30:50.695Z,3.73
2022-10-05T21:34:57.235Z,2.57
2022-10-05T21:37:01.283Z,2.37
2022-10-05T21:39:04.401Z,2.23
2022-10-05T21:41:07.676Z,1.87
2022-10-05T21:43:10.588Z,1.70
2022-10-05T21:45:13.280Z,2.00
2022-10-05T21:47:15.972Z,2.03
2022-10-05T21:49:19.994Z,2.20
2022-10-05T21:51:26.237Z,1.97
2022-10-05T21:53:34.330Z,2.20
2022-10-05T21:55:40.331Z,1.97
2022-10-05T21:57:44.239Z,2.20
2022-10-05T21:59:46.961Z,2.20
2022-10-05T22:01:49.611Z,2.20
2022-10-05T22:03:52.296Z,2.10
2022-10-05T22:05:55.038Z,2.07
2022-10-05T22:07:57.854Z,1.90
2022-10-05T22:10:02.725Z,2.60
2022-10-05T22:12:06.101Z,3.17
2022-10-05T22:14:09.190Z,3.03
2022-10-05T22:16:13.045Z,4.97
2022-10-05T22:18:19.030Z,4.30
2022-10-05T22:20:21.962Z,3.90
2022-10-05T22:22:25.105Z,3.30
2022-10-05T22:24:27.781Z,4.00
2022-10-05T22:26:32.314Z,3.60
2022-10-05T22:28:35.308Z,3.57
2022-10-05T22:30:38.607Z,2.20
2022-10-05T22:32:41.313Z,2.30
2022-10-05T22:34:44.310Z,2.40
2022-10-05T22:36:47.474Z,2.80
2022-10-05T22:38:50.535Z,2.60
2022-10-05T22:40:53.330Z,2.63
2022-10-05T22:42:57.745Z,2.50
2022-10-05T22:45:00.526Z,2.30
2022-10-05T22:47:04.418Z,2.97
2022-10-05T22:49:07.069Z,3.73
2022-10-05T22:51:10.229Z,2.53
2022-10-05T22:53:13.126Z,3.70
2022-10-05T22:55:16.156Z,3.90
2022-10-05T22:57:19.045Z,3.73
2022-10-05T22:59:23.408Z,3.33
2022-10-05T23:01:27.124Z,3.70
2022-10-05T23:03:30.353Z,2.90
2022-10-05T23:05:33.074Z,2.90
2022-10-05T23:07:40.354Z,3.47
2022-10-05T23:09:43.098Z,4.40
2022-10-05T23:11:46.701Z,4.77
2022-10-05T23:13:50.475Z,3.50
2022-10-05T23:15:54.834Z,2.47
2022-10-05T23:17:57.553Z,2.90
2022-10-05T23:20:00.748Z,3.53
2022-10-05T23:22:03.937Z,4.10
2022-10-05T23:24:07.252Z,4.07
2022-10-05T23:26:11.878Z,4.90
2022-10-05T23:28:14.582Z,5.60
2022-10-05T23:30:17.413Z,5.40
2022-10-05T23:32:21.430Z,6.20
2022-10-05T23:34:25.593Z,4.40
2022-10-05T23:36:32.102Z,3.57
2022-10-05T23:38:35.494Z,6.10
2022-10-05T23:40:38.197Z,4.07
2022-10-05T23:42:41.395Z,3.60
2022-10-05T23:44:44.089Z,3.77
2022-10-05T23:46:46.907Z,3.07
2022-10-05T23:48:51.366Z,3.63
2022-10-05T23:50:54.075Z,2.97
2022-10-05T23:52:56.827Z,2.87
2022-10-05T23:54:59.897Z,2.87
2022-10-05T23:57:02.589Z,3.30
2022-10-05T23:59:05.286Z,3.10
